Terminal Aerodrome Forecast
Issued by NWS

Home | Current Version | Previous Version | Text Only | Print | Product List | Glossary On
Versions: 1 2 3 4 5 6 7 8 9 10 11 12 13
000
FTUS45 KGJT 170520
TAFRIL
TAF
KRIL 170520Z 1706/1806 14006KT P6SM SCT120 SCT150
     FM171900 28007KT P6SM SCT200
     FM180200 15005KT P6SM SCT200=

USA.gov is the U.S. government's official web portal to all federal, state and local government web resources and services.